createdAt,value
2022-10-08T00:00:00.027Z,99.90
2022-10-08T00:02:46.176Z,99.90
2022-10-08T00:05:31.824Z,99.90
2022-10-08T00:08:17.996Z,99.90
2022-10-08T00:11:06.904Z,99.90
2022-10-08T00:13:55.093Z,99.90
2022-10-08T00:16:41.880Z,99.90
2022-10-08T00:19:28.248Z,99.90
2022-10-08T00:22:14.789Z,99.90
2022-10-08T00:25:00.493Z,99.90
2022-10-08T00:27:46.118Z,99.90
2022-10-08T00:30:39.339Z,99.90
2022-10-08T00:33:24.769Z,99.90
2022-10-08T00:36:12.886Z,99.90
2022-10-08T00:39:03.702Z,99.90
2022-10-08T00:41:52.846Z,99.90
2022-10-08T00:44:51.670Z,99.90
2022-10-08T00:47:45.488Z,99.90
2022-10-08T00:50:35.950Z,99.90
2022-10-08T00:53:21.826Z,99.90
2022-10-08T00:56:11.882Z,99.90
2022-10-08T00:58:58.787Z,99.90
2022-10-08T01:01:45.864Z,99.90
2022-10-08T01:04:32.007Z,99.90
2022-10-08T01:07:22.792Z,99.90
2022-10-08T01:10:21.695Z,99.90
2022-10-08T01:13:21.329Z,99.90
2022-10-08T01:16:36.712Z,99.90
2022-10-08T01:19:46.727Z,99.90
2022-10-08T01:22:48.985Z,99.90
2022-10-08T01:25:40.926Z,99.90
2022-10-08T01:28:53.072Z,99.90
2022-10-08T01:31:48.256Z,99.90
2022-10-08T01:34:59.195Z,99.90
2022-10-08T01:37:46.601Z,99.90
2022-10-08T01:40:36.329Z,99.90
2022-10-08T01:43:25.551Z,99.90
2022-10-08T01:46:19.503Z,99.90
2022-10-08T01:49:11.546Z,99.90
2022-10-08T01:52:04.266Z,99.90
2022-10-08T01:54:54.974Z,99.90
2022-10-08T01:57:45.460Z,99.90
2022-10-08T02:00:35.700Z,99.90
2022-10-08T02:03:22.776Z,99.90
2022-10-08T02:06:11.053Z,99.90
2022-10-08T02:08:56.709Z,99.90
2022-10-08T02:11:43.269Z,99.90
2022-10-08T02:14:30.843Z,99.90
2022-10-08T02:17:41.720Z,99.90
2022-10-08T02:20:34.059Z,99.90
2022-10-08T02:23:22.231Z,99.90
2022-10-08T02:26:15.338Z,99.90
2022-10-08T02:29:06.820Z,99.90
2022-10-08T02:32:05.474Z,99.90
2022-10-08T02:35:01.519Z,99.90
2022-10-08T02:38:02.022Z,99.90
2022-10-08T02:40:52.763Z,99.90
2022-10-08T02:43:49.783Z,99.90
2022-10-08T02:46:40.645Z,99.90
2022-10-08T02:49:37.964Z,99.90
2022-10-08T02:52:28.001Z,99.90
2022-10-08T02:55:23.221Z,99.90
2022-10-08T02:58:12.560Z,99.90
2022-10-08T03:01:07.761Z,99.90
2022-10-08T03:04:04.406Z,99.90
2022-10-08T03:06:52.923Z,99.90
2022-10-08T03:09:43.346Z,99.90
2022-10-08T03:12:30.308Z,99.90
2022-10-08T03:15:15.899Z,99.90
2022-10-08T03:18:06.531Z,99.90
2022-10-08T03:20:55.851Z,99.90
2022-10-08T03:23:43.171Z,99.90
2022-10-08T03:26:29.158Z,99.90
2022-10-08T03:29:14.989Z,99.90
2022-10-08T03:32:00.688Z,99.90
2022-10-08T03:34:47.123Z,99.90
2022-10-08T03:37:33.693Z,99.90
2022-10-08T03:40:20.225Z,99.90
2022-10-08T03:43:05.884Z,99.90
2022-10-08T03:45:55.377Z,99.90
2022-10-08T03:48:41.692Z,99.90
2022-10-08T03:51:27.559Z,99.90
2022-10-08T03:54:13.335Z,99.90
2022-10-08T03:57:00.575Z,99.90
2022-10-08T03:59:48.294Z,99.90
2022-10-08T04:02:35.042Z,99.90
2022-10-08T04:05:20.856Z,99.90
2022-10-08T04:08:07.364Z,99.90
2022-10-08T04:10:53.225Z,99.90
2022-10-08T04:13:40.591Z,99.90
2022-10-08T04:16:26.385Z,99.90
2022-10-08T04:19:14.828Z,99.90
2022-10-08T04:22:00.559Z,99.90
2022-10-08T04:24:47.141Z,99.90
2022-10-08T04:27:34.484Z,99.90
2022-10-08T04:30:20.457Z,99.90
2022-10-08T04:33:07.423Z,99.90
2022-10-08T04:35:59.844Z,99.90
2022-10-08T04:38:47.440Z,99.90
2022-10-08T04:41:33.669Z,99.90
2022-10-08T04:44:20.205Z,99.90
2022-10-08T04:47:07.359Z,99.90
2022-10-08T04:49:53.355Z,99.90
2022-10-08T04:52:39.410Z,99.90
2022-10-08T04:55:25.430Z,99.90
2022-10-08T04:58:11.775Z,99.90
2022-10-08T05:00:57.582Z,99.90
2022-10-08T05:03:48.149Z,99.90
2022-10-08T05:06:33.733Z,99.90
2022-10-08T05:09:19.432Z,99.90
2022-10-08T05:12:04.768Z,99.90
2022-10-08T05:14:50.563Z,99.90
2022-10-08T05:17:36.355Z,99.90
2022-10-08T05:20:23.019Z,99.90
2022-10-08T05:23:10.266Z,99.90
2022-10-08T05:25:56.070Z,99.90
2022-10-08T05:28:42.261Z,99.90
2022-10-08T05:31:30.066Z,99.90
2022-10-08T05:34:16.398Z,99.90
2022-10-08T05:37:03.778Z,99.90
2022-10-08T05:39:51.463Z,99.90
2022-10-08T05:42:37.930Z,99.90
2022-10-08T05:45:25.043Z,99.90
2022-10-08T05:48:13.831Z,99.90
2022-10-08T05:51:15.178Z,99.90
2022-10-08T05:54:01.491Z,99.90
2022-10-08T05:56:49.076Z,99.90
2022-10-08T05:59:36.454Z,99.90
2022-10-08T06:02:22.268Z,99.90
2022-10-08T06:05:08.113Z,99.90
2022-10-08T06:07:57.380Z,99.90
2022-10-08T06:10:53.730Z,99.90
2022-10-08T06:13:39.368Z,99.90
2022-10-08T06:16:26.055Z,99.90
2022-10-08T06:19:11.936Z,99.90
2022-10-08T06:21:58.452Z,99.90
2022-10-08T06:24:44.162Z,99.90
2022-10-08T06:27:29.697Z,99.90
2022-10-08T06:30:15.220Z,99.90
2022-10-08T06:33:00.750Z,99.90
2022-10-08T06:35:46.786Z,99.90
2022-10-08T06:38:35.898Z,99.90
2022-10-08T06:41:22.621Z,99.90
2022-10-08T06:44:11.738Z,99.90
2022-10-08T06:46:57.129Z,99.90
2022-10-08T06:49:42.618Z,99.90
2022-10-08T06:52:28.279Z,99.90
2022-10-08T06:55:14.059Z,99.90
2022-10-08T06:58:00.557Z,99.90
2022-10-08T07:00:46.340Z,99.90
2022-10-08T07:03:32.337Z,99.90
2022-10-08T07:06:18.494Z,99.90
2022-10-08T07:09:06.717Z,99.90
2022-10-08T07:11:52.284Z,99.90
2022-10-08T07:14:37.552Z,99.90
2022-10-08T07:17:25.845Z,99.90
2022-10-08T07:20:11.958Z,99.90
2022-10-08T07:22:57.544Z,99.90
2022-10-08T07:25:43.309Z,99.90
2022-10-08T07:28:32.662Z,99.90
2022-10-08T07:31:23.963Z,99.90
2022-10-08T07:34:13.385Z,99.90
2022-10-08T07:36:59.230Z,99.90
2022-10-08T07:39:44.883Z,99.90
2022-10-08T07:42:31.700Z,99.90
2022-10-08T07:45:17.892Z,99.90
2022-10-08T07:48:03.741Z,99.90
2022-10-08T07:50:49.524Z,99.90
2022-10-08T07:53:36.567Z,99.90
2022-10-08T07:56:22.886Z,99.90
2022-10-08T07:59:09.028Z,99.90
2022-10-08T08:01:54.936Z,99.90
2022-10-08T08:04:40.425Z,99.90
2022-10-08T08:07:26.101Z,99.90
2022-10-08T08:10:11.618Z,99.90
2022-10-08T08:12:57.735Z,99.90
2022-10-08T08:15:43.288Z,99.90
2022-10-08T08:18:30.992Z,99.90
2022-10-08T08:21:19.732Z,99.90
2022-10-08T08:24:10.717Z,99.90
2022-10-08T08:26:57.771Z,99.90
2022-10-08T08:29:43.550Z,99.90
2022-10-08T08:32:28.974Z,99.90
2022-10-08T08:35:14.562Z,99.90
2022-10-08T08:38:00.403Z,99.90
2022-10-08T08:40:46.002Z,99.90
2022-10-08T08:43:31.865Z,99.90
2022-10-08T08:46:21.039Z,99.90
2022-10-08T08:49:19.958Z,99.90
2022-10-08T08:52:07.356Z,99.90
2022-10-08T08:54:55.049Z,99.90
2022-10-08T08:57:54.719Z,99.90
2022-10-08T09:00:44.962Z,99.90
2022-10-08T09:03:41.060Z,99.90
2022-10-08T09:06:28.215Z,99.90
2022-10-08T09:09:39.421Z,99.90
2022-10-08T09:12:41.523Z,99.90
2022-10-08T09:15:33.916Z,99.90
2022-10-08T09:18:19.475Z,99.90
2022-10-08T09:21:05.669Z,99.90
2022-10-08T09:23:51.081Z,99.90
2022-10-08T09:26:36.775Z,99.90
2022-10-08T09:29:33.928Z,99.90
2022-10-08T09:32:21.840Z,99.90
2022-10-08T09:35:10.247Z,99.90
2022-10-08T09:37:56.722Z,99.90
2022-10-08T09:41:16.902Z,99.90
2022-10-08T09:44:13.258Z,99.90
2022-10-08T09:47:06.404Z,99.90
2022-10-08T09:50:21.383Z,99.90
2022-10-08T09:53:07.398Z,99.90
2022-10-08T09:56:02.692Z,99.90
2022-10-08T09:58:53.563Z,99.90
2022-10-08T10:01:46.404Z,99.90
2022-10-08T10:04:36.236Z,99.60
2022-10-08T10:07:23.170Z,99.90
2022-10-08T10:10:40.359Z,97.30
2022-10-08T10:13:38.814Z,97.90
2022-10-08T10:16:35.449Z,94.60
2022-10-08T10:19:28.208Z,96.30
2022-10-08T10:22:28.222Z,94.90
2022-10-08T10:25:23.076Z,94.70
2022-10-08T10:28:14.671Z,94.30
2022-10-08T10:31:19.745Z,92.30
2022-10-08T10:34:25.855Z,91.50
2022-10-08T10:37:19.131Z,90.80
2022-10-08T10:40:23.315Z,90.20
2022-10-08T10:43:34.112Z,90.30
2022-10-08T10:46:25.605Z,90.20
2022-10-08T10:49:16.833Z,90.20
2022-10-08T10:52:18.589Z,89.70
2022-10-08T10:55:25.424Z,89.60
2022-10-08T10:58:36.740Z,85.80
2022-10-08T11:01:30.530Z,86.10
2022-10-08T11:04:34.489Z,80.60
2022-10-08T11:07:32.535Z,77.20
2022-10-08T11:10:18.443Z,81.10
2022-10-08T11:13:41.608Z,82.30
2022-10-08T11:16:46.070Z,82.00
2022-10-08T11:19:41.895Z,80.00
2022-10-08T11:22:44.007Z,77.70
2022-10-08T11:26:10.757Z,77.90
2022-10-08T11:29:07.218Z,77.90
2022-10-08T11:31:53.348Z,75.90
2022-10-08T11:34:42.360Z,72.40
2022-10-08T11:37:48.414Z,76.50
2022-10-08T11:40:40.749Z,79.20
2022-10-08T11:43:44.650Z,74.30
2022-10-08T11:46:36.950Z,74.60
2022-10-08T11:49:22.963Z,73.50
2022-10-08T11:52:15.841Z,76.20
2022-10-08T11:55:02.206Z,77.80
2022-10-08T11:58:07.568Z,77.70
2022-10-08T12:01:03.134Z,80.50
2022-10-08T12:04:21.063Z,74.00
2022-10-08T12:07:21.267Z,65.80
2022-10-08T12:10:06.858Z,56.00
2022-10-08T12:12:53.547Z,53.50
2022-10-08T12:15:40.363Z,55.60
2022-10-08T12:18:26.620Z,55.60
2022-10-08T12:21:20.394Z,58.00
2022-10-08T12:24:50.342Z,57.90
2022-10-08T12:27:38.135Z,58.80
2022-10-08T12:30:47.719Z,63.40
2022-10-08T12:33:33.311Z,64.50
2022-10-08T12:36:43.978Z,62.40
2022-10-08T12:39:48.437Z,61.60
2022-10-08T12:42:38.289Z,59.70
2022-10-08T12:45:34.270Z,62.10
2022-10-08T12:48:35.132Z,61.70
2022-10-08T12:51:46.732Z,64.90
2022-10-08T12:54:33.315Z,67.30
2022-10-08T12:57:33.827Z,68.40
2022-10-08T13:00:23.818Z,66.80
2022-10-08T13:03:15.337Z,65.90
2022-10-08T13:06:25.011Z,65.70
2022-10-08T13:09:12.517Z,67.10
2022-10-08T13:12:03.562Z,66.40
2022-10-08T13:14:59.974Z,64.30
2022-10-08T13:17:45.971Z,63.40
2022-10-08T13:20:31.699Z,62.90
2022-10-08T13:23:25.989Z,64.10
2022-10-08T13:26:49.693Z,65.40
2022-10-08T13:29:37.216Z,65.50
2022-10-08T13:32:26.381Z,64.50
2022-10-08T13:35:23.802Z,66.70
2022-10-08T13:38:18.413Z,66.20
2022-10-08T13:41:06.306Z,66.00
2022-10-08T13:43:51.985Z,61.80
2022-10-08T13:46:37.612Z,65.60
2022-10-08T13:49:28.633Z,65.80
2022-10-08T13:52:21.386Z,62.70
2022-10-08T13:55:15.999Z,63.10
2022-10-08T13:58:03.518Z,63.80
2022-10-08T14:00:49.509Z,62.00
2022-10-08T14:03:35.200Z,62.20
2022-10-08T14:06:20.572Z,65.40
2022-10-08T14:09:08.541Z,68.60
2022-10-08T14:11:56.879Z,70.10
2022-10-08T14:14:42.498Z,68.50
2022-10-08T14:17:28.072Z,66.70
2022-10-08T14:20:13.595Z,66.40
2022-10-08T14:22:59.067Z,66.40
2022-10-08T14:25:44.695Z,66.90
2022-10-08T14:28:30.191Z,66.30
2022-10-08T14:31:15.977Z,66.50
2022-10-08T14:34:02.124Z,68.70
2022-10-08T14:36:47.963Z,67.70
2022-10-08T14:39:33.645Z,68.60
2022-10-08T14:42:19.100Z,67.80
2022-10-08T14:45:05.224Z,68.70
2022-10-08T14:47:50.893Z,69.70
2022-10-08T14:50:36.322Z,68.30
2022-10-08T14:53:21.920Z,67.70
2022-10-08T14:56:12.361Z,67.70
2022-10-08T14:58:58.391Z,68.30
2022-10-08T15:01:43.880Z,69.30
2022-10-08T15:04:29.378Z,71.20
2022-10-08T15:07:14.938Z,69.00
2022-10-08T15:10:00.456Z,71.10
2022-10-08T15:12:46.465Z,70.70
2022-10-08T15:15:32.083Z,68.20
2022-10-08T15:18:17.634Z,68.50
2022-10-08T15:21:03.229Z,69.60
2022-10-08T15:23:48.536Z,69.80
2022-10-08T15:26:34.732Z,70.60
2022-10-08T15:29:20.070Z,74.30
2022-10-08T15:32:05.702Z,74.70
2022-10-08T15:34:51.113Z,75.00
2022-10-08T15:37:36.676Z,74.70
2022-10-08T15:40:22.180Z,74.70
2022-10-08T15:43:07.720Z,74.90
2022-10-08T15:45:53.377Z,72.80
2022-10-08T15:48:38.964Z,73.20
2022-10-08T15:51:25.197Z,74.10
2022-10-08T15:54:10.948Z,73.60
2022-10-08T15:56:56.516Z,74.80
2022-10-08T15:59:42.369Z,74.10
2022-10-08T16:02:27.808Z,73.60
2022-10-08T16:05:14.107Z,73.60
2022-10-08T16:07:59.318Z,73.20
2022-10-08T16:10:45.008Z,73.40
2022-10-08T16:13:30.703Z,74.30
2022-10-08T16:16:18.114Z,74.80
2022-10-08T16:19:09.413Z,74.90
2022-10-08T16:21:57.413Z,76.20
2022-10-08T16:24:42.954Z,76.10
2022-10-08T16:27:28.508Z,76.70
2022-10-08T16:30:14.120Z,76.60
2022-10-08T16:32:59.557Z,75.60
2022-10-08T16:35:45.057Z,77.40
2022-10-08T16:38:31.153Z,77.10
2022-10-08T16:41:23.029Z,78.10
2022-10-08T16:44:12.856Z,78.60
2022-10-08T16:46:58.686Z,77.70
2022-10-08T16:49:43.981Z,79.70
2022-10-08T16:52:29.531Z,80.50
2022-10-08T16:55:15.097Z,79.20
2022-10-08T16:58:00.736Z,81.10
2022-10-08T17:00:46.319Z,81.40
2022-10-08T17:03:31.972Z,81.70
2022-10-08T17:06:18.812Z,80.80
2022-10-08T17:09:05.749Z,82.20
2022-10-08T17:11:51.956Z,82.10
2022-10-08T17:14:37.948Z,84.20
2022-10-08T17:17:24.796Z,84.30
2022-10-08T17:20:11.783Z,84.90
2022-10-08T17:22:57.149Z,83.80
2022-10-08T17:25:43.318Z,85.00
2022-10-08T17:28:31.471Z,84.90
2022-10-08T17:31:23.394Z,85.00
2022-10-08T17:34:10.025Z,85.30
2022-10-08T17:36:55.632Z,85.30
2022-10-08T17:39:41.154Z,86.00
2022-10-08T17:42:26.724Z,87.70
2022-10-08T17:45:12.316Z,88.90
2022-10-08T17:47:57.735Z,90.30
2022-10-08T17:50:43.382Z,90.40
2022-10-08T17:53:29.875Z,90.60
2022-10-08T17:56:15.525Z,90.40
2022-10-08T17:59:01.142Z,90.20
2022-10-08T18:01:46.934Z,90.40
2022-10-08T18:04:32.422Z,90.80
2022-10-08T18:07:18.021Z,90.80
2022-10-08T18:10:05.959Z,91.10
2022-10-08T18:12:51.876Z,91.70
2022-10-08T18:15:37.530Z,91.60
2022-10-08T18:18:23.257Z,92.30
2022-10-08T18:21:10.900Z,92.30
2022-10-08T18:23:58.719Z,92.60
2022-10-08T18:26:44.517Z,93.00
2022-10-08T18:29:30.556Z,93.50
2022-10-08T18:32:16.388Z,93.30
2022-10-08T18:35:01.910Z,93.60
2022-10-08T18:37:47.860Z,93.70
2022-10-08T18:40:33.157Z,94.00
2022-10-08T18:43:18.612Z,94.00
2022-10-08T18:46:04.775Z,94.10
2022-10-08T18:48:50.803Z,95.00
2022-10-08T18:51:36.580Z,95.10
2022-10-08T18:54:22.180Z,95.50
2022-10-08T18:57:07.912Z,95.80
2022-10-08T18:59:53.526Z,95.90
2022-10-08T19:02:39.215Z,95.80
2022-10-08T19:05:24.985Z,95.90
2022-10-08T19:08:10.484Z,96.00
2022-10-08T19:10:58.586Z,96.50
2022-10-08T19:13:44.643Z,96.70
2022-10-08T19:16:30.721Z,96.70
2022-10-08T19:19:19.553Z,96.30
2022-10-08T19:22:05.182Z,96.50
2022-10-08T19:24:50.798Z,96.30
2022-10-08T19:27:36.727Z,96.60
2022-10-08T19:30:26.580Z,96.80
2022-10-08T19:33:14.403Z,97.10
2022-10-08T19:36:00.928Z,97.50
2022-10-08T19:39:00.744Z,98.40
2022-10-08T19:41:47.122Z,98.90
2022-10-08T19:44:33.104Z,99.40
2022-10-08T19:47:20.622Z,99.90
2022-10-08T19:50:06.835Z,99.90
2022-10-08T19:52:52.271Z,99.90
2022-10-08T19:55:38.315Z,99.90
2022-10-08T19:58:24.007Z,99.90
2022-10-08T20:01:15.572Z,99.90
2022-10-08T20:04:04.448Z,99.90
2022-10-08T20:06:50.750Z,99.90
2022-10-08T20:09:36.350Z,99.90
2022-10-08T20:12:22.147Z,99.90
2022-10-08T20:15:09.997Z,99.90
2022-10-08T20:17:55.921Z,99.90
2022-10-08T20:20:41.537Z,99.90
2022-10-08T20:23:27.449Z,99.90
2022-10-08T20:26:22.478Z,99.90
2022-10-08T20:29:20.160Z,99.90
2022-10-08T20:32:06.360Z,99.90
2022-10-08T20:34:51.850Z,99.90
2022-10-08T20:37:37.435Z,99.90
2022-10-08T20:40:23.128Z,99.90
2022-10-08T20:43:08.948Z,99.90
2022-10-08T20:45:54.915Z,99.90
2022-10-08T20:48:42.225Z,99.90
2022-10-08T20:51:29.060Z,99.90
2022-10-08T20:54:16.410Z,99.90
2022-10-08T20:57:01.862Z,99.90
2022-10-08T20:59:48.112Z,99.90
2022-10-08T21:02:33.939Z,99.90
2022-10-08T21:05:19.598Z,99.90
2022-10-08T21:08:07.185Z,99.90
2022-10-08T21:10:53.465Z,99.90
2022-10-08T21:13:39.339Z,99.90
2022-10-08T21:16:27.797Z,99.90
2022-10-08T21:19:18.135Z,99.90
2022-10-08T21:22:03.782Z,99.90
2022-10-08T21:24:49.579Z,99.90
2022-10-08T21:27:35.086Z,99.90
2022-10-08T21:30:20.693Z,99.90
2022-10-08T21:33:06.303Z,99.90
2022-10-08T21:35:54.866Z,99.90
2022-10-08T21:38:40.468Z,99.90
2022-10-08T21:41:30.131Z,99.90
2022-10-08T21:44:15.777Z,99.90
2022-10-08T21:47:01.329Z,99.90
2022-10-08T21:49:47.173Z,99.90
2022-10-08T21:52:32.597Z,99.90
2022-10-08T21:55:18.021Z,99.90
2022-10-08T21:58:03.815Z,99.90
2022-10-08T22:00:49.382Z,99.90
2022-10-08T22:03:35.337Z,99.90
2022-10-08T22:06:21.489Z,99.90
2022-10-08T22:09:10.671Z,99.90
2022-10-08T22:11:57.821Z,99.90
2022-10-08T22:14:43.465Z,99.90
2022-10-08T22:17:29.081Z,99.90
2022-10-08T22:20:14.683Z,99.90
2022-10-08T22:23:00.362Z,99.90
2022-10-08T22:26:00.794Z,99.90
2022-10-08T22:28:46.219Z,99.90
2022-10-08T22:31:32.412Z,99.90
2022-10-08T22:34:17.988Z,99.90
2022-10-08T22:37:03.636Z,99.90
2022-10-08T22:39:49.122Z,99.90
2022-10-08T22:42:35.060Z,99.90
2022-10-08T22:45:20.974Z,99.90
2022-10-08T22:48:06.878Z,99.90
2022-10-08T22:50:52.440Z,99.90
2022-10-08T22:53:38.127Z,99.90
2022-10-08T22:56:29.738Z,99.90
2022-10-08T22:59:15.558Z,99.90
2022-10-08T23:02:02.966Z,99.90
2022-10-08T23:04:48.905Z,99.90
2022-10-08T23:07:34.255Z,99.90
2022-10-08T23:10:19.791Z,99.90
2022-10-08T23:13:05.524Z,99.90
2022-10-08T23:16:02.747Z,99.90
2022-10-08T23:18:57.132Z,99.90
2022-10-08T23:21:44.426Z,99.90
2022-10-08T23:24:29.960Z,99.90
2022-10-08T23:27:15.345Z,99.90
2022-10-08T23:30:01.858Z,99.90
2022-10-08T23:32:47.552Z,99.90
2022-10-08T23:35:33.281Z,99.90
2022-10-08T23:38:19.020Z,99.90
2022-10-08T23:41:06.916Z,99.90
2022-10-08T23:43:53.348Z,99.90
2022-10-08T23:46:38.828Z,99.90
2022-10-08T23:49:24.416Z,99.90
2022-10-08T23:52:10.073Z,99.90
2022-10-08T23:54:55.689Z,99.90
2022-10-08T23:57:41.245Z,99.90
